HZMSA TIST-TNCM
Flight info
| Callsign | HZMSA |
|---|---|
| Flight time | 0h 52m |
| Altitude | 9000 |
| Route | DCT STT A638 PJM DCT |
| Aircraft | DA42/L-SBDGRY/S |
Departure
| Time | 2026-04-26 01:08 |
|---|---|
| Airport | Cyril E. King Airport (TIST) |
Arrival
| Time | 2026-04-26 02:01 |
|---|---|
| Airport | Princess Juliana International Airport (TNCM) |
| Time | Latitude | Longitude | Altitude | Speed | Heading |
|---|---|---|---|---|---|
| 2026-04-26 00:42 | 18.33920 | -64.96457 | 21 ft | 0 kts | 87° |
| 2026-04-26 01:05 | 18.33921 | -64.96452 | 21 ft | 6 kts | 88° |
| 2026-04-26 01:05 | 18.33920 | -64.96355 | 21 ft | 11 kts | 106° |
| 2026-04-26 01:06 | 18.33850 | -64.96339 | 18 ft | 12 kts | 177° |
| 2026-04-26 01:06 | 18.33768 | -64.96361 | 13 ft | 9 kts | 269° |
| 2026-04-26 01:06 | 18.33760 | -64.96400 | 13 ft | 0 kts | 263° |
| 2026-04-26 01:07 | 18.33760 | -64.96401 | 13 ft | 4 kts | 263° |
| 2026-04-26 01:07 | 18.33742 | -64.96686 | 15 ft | 70 kts | 266° |
| 2026-04-26 01:08 | 18.33720 | -64.97335 | 99 ft | 101 kts | 267° |
| 2026-04-26 01:08 | 18.33691 | -64.98117 | 398 ft | 109 kts | 269° |
| 2026-04-26 01:08 | 18.34013 | -64.98833 | 859 ft | 105 kts | 314° |
| 2026-04-26 01:08 | 18.34427 | -64.99434 | 1283 ft | 101 kts | 289° |
| 2026-04-26 01:09 | 18.34752 | -65.00091 | 1619 ft | 104 kts | 311° |
| 2026-04-26 01:09 | 18.35393 | -65.00447 | 1940 ft | 107 kts | 350° |
| 2026-04-26 01:09 | 18.36097 | -65.00315 | 2218 ft | 106 kts | 35° |
| 2026-04-26 01:09 | 18.36545 | -64.99749 | 2500 ft | 101 kts | 73° |
| 2026-04-26 01:10 | 18.36774 | -64.99048 | 2805 ft | 101 kts | 74° |
| 2026-04-26 01:10 | 18.37005 | -64.98349 | 3157 ft | 101 kts | 73° |
| 2026-04-26 01:10 | 18.37243 | -64.97649 | 3467 ft | 103 kts | 73° |
| 2026-04-26 01:10 | 18.37489 | -64.96938 | 3789 ft | 103 kts | 72° |
| 2026-04-26 01:11 | 18.37738 | -64.96223 | 4105 ft | 105 kts | 72° |
| 2026-04-26 01:11 | 18.37986 | -64.95503 | 4406 ft | 104 kts | 72° |
| 2026-04-26 01:11 | 18.38240 | -64.94778 | 4685 ft | 106 kts | 72° |
| 2026-04-26 01:11 | 18.38496 | -64.94043 | 4980 ft | 107 kts | 72° |
| 2026-04-26 01:12 | 18.38753 | -64.93304 | 5264 ft | 108 kts | 72° |
| 2026-04-26 01:12 | 18.39012 | -64.92558 | 5556 ft | 108 kts | 72° |
| 2026-04-26 01:12 | 18.39270 | -64.91816 | 5844 ft | 110 kts | 72° |
| 2026-04-26 01:12 | 18.39533 | -64.91057 | 6139 ft | 110 kts | 72° |
| 2026-04-26 01:13 | 18.39798 | -64.90295 | 6440 ft | 110 kts | 71° |
| 2026-04-26 01:13 | 18.40060 | -64.89532 | 6716 ft | 112 kts | 72° |
| 2026-04-26 01:13 | 18.40327 | -64.88761 | 6994 ft | 113 kts | 71° |
| 2026-04-26 01:13 | 18.40597 | -64.87983 | 7292 ft | 113 kts | 71° |
| 2026-04-26 01:14 | 18.40867 | -64.87202 | 7572 ft | 114 kts | 71° |
| 2026-04-26 01:14 | 18.41139 | -64.86416 | 7851 ft | 115 kts | 71° |
| 2026-04-26 01:14 | 18.41416 | -64.85618 | 8138 ft | 116 kts | 71° |
| 2026-04-26 01:14 | 18.41693 | -64.84818 | 8423 ft | 117 kts | 71° |
| 2026-04-26 01:15 | 18.41972 | -64.84014 | 8704 ft | 117 kts | 71° |
| 2026-04-26 01:15 | 18.42252 | -64.83204 | 8979 ft | 119 kts | 71° |
| 2026-04-26 01:15 | 18.42562 | -64.82299 | 9004 ft | 142 kts | 71° |
| 2026-04-26 01:15 | 18.42917 | -64.81255 | 9012 ft | 160 kts | 71° |
| 2026-04-26 01:16 | 18.43304 | -64.80110 | 9013 ft | 171 kts | 71° |
| 2026-04-26 01:16 | 18.43711 | -64.78906 | 9012 ft | 178 kts | 71° |
| 2026-04-26 01:16 | 18.44134 | -64.77664 | 9006 ft | 183 kts | 71° |
| 2026-04-26 01:16 | 18.44565 | -64.76407 | 9007 ft | 185 kts | 71° |
| 2026-04-26 01:17 | 18.45004 | -64.75123 | 9019 ft | 187 kts | 71° |
| 2026-04-26 01:17 | 18.45446 | -64.73831 | 8995 ft | 189 kts | 71° |
| 2026-04-26 01:17 | 18.45891 | -64.72537 | 8999 ft | 188 kts | 71° |
| 2026-04-26 01:17 | 18.46341 | -64.71246 | 9002 ft | 188 kts | 71° |
| 2026-04-26 01:18 | 18.46791 | -64.69943 | 9003 ft | 191 kts | 71° |
| 2026-04-26 01:18 | 18.47244 | -64.68640 | 9000 ft | 188 kts | 71° |
| 2026-04-26 01:18 | 18.47690 | -64.67350 | 8997 ft | 186 kts | 71° |
| 2026-04-26 01:18 | 18.48129 | -64.66081 | 8997 ft | 184 kts | 71° |
| 2026-04-26 01:19 | 18.48569 | -64.64814 | 9000 ft | 184 kts | 71° |
| 2026-04-26 01:19 | 18.49010 | -64.63541 | 8999 ft | 185 kts | 71° |
| 2026-04-26 01:19 | 18.49450 | -64.62266 | 8998 ft | 185 kts | 71° |
| 2026-04-26 01:19 | 18.49887 | -64.60998 | 8998 ft | 183 kts | 71° |
| 2026-04-26 01:20 | 18.50321 | -64.59739 | 8998 ft | 183 kts | 71° |
| 2026-04-26 01:20 | 18.50749 | -64.58496 | 8998 ft | 183 kts | 71° |
| 2026-04-26 01:20 | 18.51184 | -64.57237 | 8998 ft | 183 kts | 71° |
| 2026-04-26 01:20 | 18.51619 | -64.55976 | 8999 ft | 184 kts | 71° |
| 2026-04-26 01:21 | 18.52055 | -64.54713 | 8998 ft | 183 kts | 71° |
| 2026-04-26 01:21 | 18.52489 | -64.53452 | 8998 ft | 183 kts | 71° |
| 2026-04-26 01:21 | 18.52924 | -64.52187 | 8996 ft | 183 kts | 71° |
| 2026-04-26 01:21 | 18.53358 | -64.50926 | 8998 ft | 182 kts | 71° |
| 2026-04-26 01:22 | 18.53789 | -64.49672 | 8998 ft | 182 kts | 71° |
| 2026-04-26 01:22 | 18.54222 | -64.48416 | 8997 ft | 183 kts | 71° |
| 2026-04-26 01:22 | 18.54656 | -64.47151 | 8997 ft | 184 kts | 71° |
| 2026-04-26 01:22 | 18.55091 | -64.45876 | 8999 ft | 184 kts | 71° |
| 2026-04-26 01:23 | 18.55528 | -64.44608 | 8999 ft | 185 kts | 71° |
| 2026-04-26 01:23 | 18.55968 | -64.43330 | 8999 ft | 186 kts | 71° |
| 2026-04-26 01:23 | 18.56408 | -64.42044 | 8997 ft | 187 kts | 71° |
| 2026-04-26 01:23 | 18.56845 | -64.40769 | 8999 ft | 187 kts | 71° |
| 2026-04-26 01:24 | 18.57286 | -64.39481 | 8999 ft | 186 kts | 71° |
| 2026-04-26 01:24 | 18.57730 | -64.38191 | 8997 ft | 187 kts | 71° |
| 2026-04-26 01:24 | 18.58172 | -64.36902 | 8997 ft | 187 kts | 71° |
| 2026-04-26 01:24 | 18.58614 | -64.35610 | 8999 ft | 188 kts | 71° |
| 2026-04-26 01:25 | 18.59057 | -64.34315 | 8999 ft | 188 kts | 71° |
| 2026-04-26 01:25 | 18.59501 | -64.33021 | 8998 ft | 188 kts | 71° |
| 2026-04-26 01:25 | 18.59945 | -64.31726 | 8998 ft | 188 kts | 71° |
| 2026-04-26 01:25 | 18.60389 | -64.30435 | 8998 ft | 187 kts | 71° |
| 2026-04-26 01:26 | 18.60832 | -64.29140 | 8997 ft | 187 kts | 71° |
| 2026-04-26 01:26 | 18.61276 | -64.27847 | 8997 ft | 188 kts | 71° |
| 2026-04-26 01:26 | 18.61717 | -64.26552 | 8997 ft | 187 kts | 71° |
| 2026-04-26 01:26 | 18.62158 | -64.25264 | 8998 ft | 187 kts | 71° |
| 2026-04-26 01:27 | 18.62603 | -64.23976 | 8997 ft | 187 kts | 71° |
| 2026-04-26 01:27 | 18.63045 | -64.22684 | 8997 ft | 188 kts | 71° |
| 2026-04-26 01:27 | 18.63483 | -64.21400 | 8997 ft | 188 kts | 71° |
| 2026-04-26 01:27 | 18.63895 | -64.20094 | 8994 ft | 187 kts | 81° |
| 2026-04-26 01:28 | 18.63748 | -64.18769 | 8990 ft | 182 kts | 117° |
| 2026-04-26 01:28 | 18.63006 | -64.17719 | 8995 ft | 178 kts | 134° |
| 2026-04-26 01:28 | 18.62276 | -64.16653 | 8993 ft | 180 kts | 123° |
| 2026-04-26 01:28 | 18.61691 | -64.15482 | 8995 ft | 180 kts | 118° |
| 2026-04-26 01:29 | 18.61152 | -64.14289 | 8995 ft | 180 kts | 118° |
| 2026-04-26 01:29 | 18.60609 | -64.13094 | 8994 ft | 181 kts | 118° |
| 2026-04-26 01:29 | 18.60061 | -64.11906 | 8993 ft | 180 kts | 118° |
| 2026-04-26 01:29 | 18.59509 | -64.10719 | 8995 ft | 181 kts | 119° |
| 2026-04-26 01:30 | 18.59141 | -64.09931 | 8995 ft | 181 kts | 119° |
| 2026-04-26 01:30 | 18.58395 | -64.08332 | 8993 ft | 181 kts | 119° |
| 2026-04-26 01:30 | 18.58025 | -64.07541 | 8993 ft | 182 kts | 120° |
| 2026-04-26 01:30 | 18.57204 | -64.06002 | 8993 ft | 183 kts | 123° |
| 2026-04-26 01:31 | 18.56566 | -64.04841 | 8993 ft | 183 kts | 122° |
| 2026-04-26 01:31 | 18.55940 | -64.03680 | 8993 ft | 181 kts | 122° |
| 2026-04-26 01:31 | 18.55530 | -64.02911 | 8993 ft | 181 kts | 122° |
| 2026-04-26 01:31 | 18.54915 | -64.01751 | 8994 ft | 180 kts | 122° |
| 2026-04-26 01:32 | 18.54303 | -64.00596 | 8994 ft | 180 kts | 122° |
| 2026-04-26 01:32 | 18.53688 | -63.99441 | 8994 ft | 181 kts | 122° |
| 2026-04-26 01:32 | 18.53074 | -63.98285 | 8992 ft | 180 kts | 122° |
| 2026-04-26 01:32 | 18.52460 | -63.97129 | 8992 ft | 181 kts | 122° |
| 2026-04-26 01:33 | 18.51847 | -63.95973 | 8992 ft | 181 kts | 122° |
| 2026-04-26 01:33 | 18.51233 | -63.94817 | 8993 ft | 181 kts | 122° |
| 2026-04-26 01:33 | 18.50614 | -63.93658 | 8993 ft | 181 kts | 122° |
| 2026-04-26 01:33 | 18.50003 | -63.92507 | 8992 ft | 180 kts | 122° |
| 2026-04-26 01:34 | 18.49388 | -63.91347 | 8993 ft | 181 kts | 122° |
| 2026-04-26 01:34 | 18.48771 | -63.90189 | 8993 ft | 181 kts | 122° |
| 2026-04-26 01:34 | 18.48153 | -63.89031 | 8993 ft | 181 kts | 122° |
| 2026-04-26 01:34 | 18.47536 | -63.87873 | 8992 ft | 181 kts | 122° |
| 2026-04-26 01:35 | 18.46924 | -63.86717 | 8993 ft | 180 kts | 122° |
| 2026-04-26 01:35 | 18.46317 | -63.85578 | 8993 ft | 181 kts | 122° |
| 2026-04-26 01:35 | 18.45703 | -63.84423 | 8992 ft | 180 kts | 122° |
| 2026-04-26 01:35 | 18.45091 | -63.83272 | 8992 ft | 180 kts | 122° |
| 2026-04-26 01:36 | 18.44480 | -63.82123 | 8992 ft | 178 kts | 122° |
| 2026-04-26 01:36 | 18.43874 | -63.80981 | 8991 ft | 178 kts | 122° |
| 2026-04-26 01:36 | 18.43266 | -63.79840 | 8992 ft | 179 kts | 122° |
| 2026-04-26 01:37 | 18.42042 | -63.77548 | 8992 ft | 180 kts | 122° |
| 2026-04-26 01:37 | 18.41429 | -63.76398 | 8992 ft | 180 kts | 122° |
| 2026-04-26 01:37 | 18.40816 | -63.75248 | 8992 ft | 180 kts | 122° |
| 2026-04-26 01:37 | 18.40202 | -63.74097 | 8993 ft | 180 kts | 122° |
| 2026-04-26 01:38 | 18.39610 | -63.72982 | 8975 ft | 171 kts | 122° |
| 2026-04-26 01:38 | 18.39045 | -63.71914 | 8769 ft | 167 kts | 122° |
| 2026-04-26 01:38 | 18.38489 | -63.70862 | 8599 ft | 162 kts | 122° |
| 2026-04-26 01:38 | 18.37944 | -63.69835 | 8447 ft | 159 kts | 122° |
| 2026-04-26 01:39 | 18.37411 | -63.68834 | 8295 ft | 155 kts | 122° |
| 2026-04-26 01:39 | 18.36886 | -63.67850 | 8133 ft | 153 kts | 122° |
| 2026-04-26 01:39 | 18.36374 | -63.66886 | 8054 ft | 146 kts | 122° |
| 2026-04-26 01:39 | 18.35892 | -63.65978 | 8027 ft | 139 kts | 123° |
| 2026-04-26 01:40 | 18.35418 | -63.65092 | 7902 ft | 139 kts | 123° |
| 2026-04-26 01:40 | 18.34941 | -63.64202 | 7784 ft | 139 kts | 123° |
| 2026-04-26 01:40 | 18.34466 | -63.63316 | 7673 ft | 139 kts | 123° |
| 2026-04-26 01:40 | 18.33990 | -63.62430 | 7560 ft | 138 kts | 122° |
| 2026-04-26 01:41 | 18.33519 | -63.61549 | 7429 ft | 137 kts | 122° |
| 2026-04-26 01:41 | 18.33049 | -63.60667 | 7306 ft | 138 kts | 122° |
| 2026-04-26 01:41 | 18.32584 | -63.59791 | 7166 ft | 137 kts | 122° |
| 2026-04-26 01:41 | 18.32116 | -63.58923 | 7014 ft | 136 kts | 123° |
| 2026-04-26 01:42 | 18.31648 | -63.58050 | 6876 ft | 137 kts | 122° |
| 2026-04-26 01:42 | 18.31184 | -63.57180 | 6737 ft | 136 kts | 122° |
| 2026-04-26 01:42 | 18.30727 | -63.56325 | 6603 ft | 136 kts | 122° |
| 2026-04-26 01:42 | 18.30265 | -63.55462 | 6456 ft | 136 kts | 122° |
| 2026-04-26 01:43 | 18.29805 | -63.54600 | 6317 ft | 134 kts | 122° |
| 2026-04-26 01:43 | 18.29347 | -63.53744 | 6156 ft | 134 kts | 122° |
| 2026-04-26 01:43 | 18.28892 | -63.52887 | 6009 ft | 134 kts | 122° |
| 2026-04-26 01:43 | 18.28434 | -63.52034 | 5868 ft | 134 kts | 122° |
| 2026-04-26 01:44 | 18.27980 | -63.51184 | 5729 ft | 132 kts | 122° |
| 2026-04-26 01:44 | 18.27528 | -63.50341 | 5566 ft | 132 kts | 122° |
| 2026-04-26 01:44 | 18.27067 | -63.49485 | 5426 ft | 134 kts | 122° |
| 2026-04-26 01:44 | 18.26618 | -63.48645 | 5294 ft | 130 kts | 122° |
| 2026-04-26 01:45 | 18.26169 | -63.47806 | 5131 ft | 132 kts | 122° |
| 2026-04-26 01:45 | 18.25724 | -63.46969 | 4976 ft | 131 kts | 122° |
| 2026-04-26 01:45 | 18.25272 | -63.46131 | 4835 ft | 132 kts | 122° |
| 2026-04-26 01:45 | 18.24825 | -63.45297 | 4711 ft | 130 kts | 122° |
| 2026-04-26 01:46 | 18.24384 | -63.44479 | 4561 ft | 131 kts | 122° |
| 2026-04-26 01:46 | 18.23941 | -63.43649 | 4425 ft | 128 kts | 122° |
| 2026-04-26 01:46 | 18.23498 | -63.42821 | 4279 ft | 131 kts | 122° |
| 2026-04-26 01:46 | 18.23054 | -63.41993 | 4157 ft | 130 kts | 121° |
| 2026-04-26 01:47 | 18.22614 | -63.41171 | 4028 ft | 129 kts | 121° |
| 2026-04-26 01:47 | 18.22138 | -63.40382 | 3881 ft | 128 kts | 126° |
| 2026-04-26 01:47 | 18.21644 | -63.39602 | 3746 ft | 128 kts | 126° |
| 2026-04-26 01:47 | 18.21143 | -63.38824 | 3634 ft | 127 kts | 125° |
| 2026-04-26 01:48 | 18.20643 | -63.38044 | 3512 ft | 128 kts | 126° |
| 2026-04-26 01:48 | 18.20147 | -63.37271 | 3392 ft | 127 kts | 125° |
| 2026-04-26 01:48 | 18.19653 | -63.36501 | 3263 ft | 125 kts | 125° |
| 2026-04-26 01:48 | 18.19165 | -63.35736 | 3102 ft | 127 kts | 125° |
| 2026-04-26 01:49 | 18.18671 | -63.34970 | 2971 ft | 126 kts | 125° |
| 2026-04-26 01:49 | 18.18183 | -63.34205 | 2825 ft | 127 kts | 125° |
| 2026-04-26 01:49 | 18.17694 | -63.33450 | 2734 ft | 124 kts | 126° |
| 2026-04-26 01:49 | 18.17193 | -63.32668 | 2683 ft | 136 kts | 125° |
| 2026-04-26 01:50 | 18.16640 | -63.31802 | 2679 ft | 145 kts | 125° |
| 2026-04-26 01:50 | 18.16072 | -63.30918 | 2596 ft | 146 kts | 125° |
| 2026-04-26 01:50 | 18.15513 | -63.30043 | 2592 ft | 143 kts | 125° |
| 2026-04-26 01:50 | 18.14955 | -63.29178 | 2599 ft | 142 kts | 125° |
| 2026-04-26 01:51 | 18.14398 | -63.28311 | 2599 ft | 142 kts | 124° |
| 2026-04-26 01:51 | 18.13787 | -63.27518 | 2574 ft | 138 kts | 142° |
| 2026-04-26 01:51 | 18.12942 | -63.27102 | 2459 ft | 132 kts | 166° |
| 2026-04-26 01:51 | 18.12039 | -63.27099 | 2307 ft | 130 kts | 190° |
| 2026-04-26 01:52 | 18.11210 | -63.27470 | 2154 ft | 129 kts | 205° |
| 2026-04-26 01:52 | 18.10409 | -63.27877 | 2005 ft | 129 kts | 202° |
| 2026-04-26 01:52 | 18.09587 | -63.28243 | 1853 ft | 128 kts | 199° |
| 2026-04-26 01:52 | 18.08743 | -63.28555 | 1705 ft | 130 kts | 195° |
| 2026-04-26 01:53 | 18.07848 | -63.28826 | 1605 ft | 142 kts | 192° |
| 2026-04-26 01:53 | 18.06865 | -63.29063 | 1606 ft | 149 kts | 189° |
| 2026-04-26 01:53 | 18.05865 | -63.29237 | 1611 ft | 147 kts | 187° |
| 2026-04-26 01:53 | 18.04862 | -63.29427 | 1606 ft | 147 kts | 189° |
| 2026-04-26 01:54 | 18.03863 | -63.29643 | 1606 ft | 146 kts | 189° |
| 2026-04-26 01:54 | 18.02896 | -63.29794 | 1597 ft | 137 kts | 171° |
| 2026-04-26 01:54 | 18.02135 | -63.29309 | 1598 ft | 128 kts | 124° |
| 2026-04-26 01:54 | 18.01804 | -63.28496 | 1601 ft | 117 kts | 107° |
| 2026-04-26 01:55 | 18.01766 | -63.27677 | 1594 ft | 112 kts | 86° |
| 2026-04-26 01:55 | 18.01842 | -63.26880 | 1596 ft | 108 kts | 85° |
| 2026-04-26 01:55 | 18.01930 | -63.26102 | 1593 ft | 106 kts | 85° |
| 2026-04-26 01:55 | 18.02023 | -63.25338 | 1592 ft | 105 kts | 84° |
| 2026-04-26 01:56 | 18.02120 | -63.24586 | 1588 ft | 102 kts | 84° |
| 2026-04-26 01:56 | 18.02218 | -63.23848 | 1594 ft | 102 kts | 84° |
| 2026-04-26 01:56 | 18.02315 | -63.23111 | 1593 ft | 101 kts | 84° |
| 2026-04-26 01:56 | 18.02413 | -63.22374 | 1595 ft | 102 kts | 84° |
| 2026-04-26 01:57 | 18.02512 | -63.21632 | 1594 ft | 102 kts | 84° |
| 2026-04-26 01:57 | 18.02610 | -63.20898 | 1594 ft | 100 kts | 84° |
| 2026-04-26 01:57 | 18.02706 | -63.20178 | 1592 ft | 102 kts | 84° |
| 2026-04-26 01:57 | 18.02805 | -63.19444 | 1583 ft | 99 kts | 83° |
| 2026-04-26 01:58 | 18.02900 | -63.18743 | 1594 ft | 98 kts | 84° |
| 2026-04-26 01:58 | 18.02999 | -63.18021 | 1576 ft | 102 kts | 84° |
| 2026-04-26 01:58 | 18.03098 | -63.17264 | 1425 ft | 105 kts | 84° |
| 2026-04-26 01:58 | 18.03193 | -63.16553 | 1273 ft | 93 kts | 83° |
| 2026-04-26 01:59 | 18.03301 | -63.15889 | 1050 ft | 94 kts | 79° |
| 2026-04-26 01:59 | 18.03458 | -63.15219 | 843 ft | 92 kts | 78° |
| 2026-04-26 01:59 | 18.03581 | -63.14591 | 651 ft | 86 kts | 82° |
| 2026-04-26 01:59 | 18.03677 | -63.13996 | 523 ft | 81 kts | 83° |
| 2026-04-26 02:00 | 18.03748 | -63.13426 | 386 ft | 78 kts | 84° |
| 2026-04-26 02:00 | 18.03814 | -63.12849 | 276 ft | 78 kts | 84° |
| 2026-04-26 02:00 | 18.03896 | -63.12278 | 174 ft | 81 kts | 82° |
| 2026-04-26 02:00 | 18.03970 | -63.11738 | 22 ft | 64 kts | 81° |
| 2026-04-26 02:01 | 18.04023 | -63.11380 | 22 ft | 38 kts | 81° |
| 2026-04-26 02:01 | 18.04067 | -63.11168 | 22 ft | 21 kts | 41° |
| 2026-04-26 02:01 | 18.04146 | -63.11168 | 23 ft | 10 kts | 353° |
| 2026-04-26 02:01 | 18.04169 | -63.11170 | 23 ft | 0 kts | 353° |